sensor_id;sensor_type;location;lat;lon;timestamp;P1;durP1;ratioP1;P2;durP2;ratioP2
41568;SDS011;27283;52.504;13.358;2023-02-15T00:00:53;75.45;;;29.48;;
41568;SDS011;27283;52.504;13.358;2023-02-15T00:03:28;73.32;;;27.83;;
41568;SDS011;27283;52.504;13.358;2023-02-15T00:06:01;76.60;;;29.65;;
41568;SDS011;27283;52.504;13.358;2023-02-15T00:08:33;78.03;;;28.23;;
41568;SDS011;27283;52.504;13.358;2023-02-15T00:11:06;77.82;;;29.33;;
41568;SDS011;27283;52.504;13.358;2023-02-15T00:13:39;72.18;;;28.52;;
41568;SDS011;27283;52.504;13.358;2023-02-15T00:16:29;73.13;;;28.75;;
41568;SDS011;27283;52.504;13.358;2023-02-15T00:19:01;82.38;;;30.08;;
41568;SDS011;27283;52.504;13.358;2023-02-15T00:21:34;82.10;;;30.98;;
41568;SDS011;27283;52.504;13.358;2023-02-15T00:24:11;76.82;;;30.55;;
41568;SDS011;27283;52.504;13.358;2023-02-15T00:26:47;80.78;;;30.73;;
41568;SDS011;27283;52.504;13.358;2023-02-15T00:29:29;79.70;;;30.17;;
41568;SDS011;27283;52.504;13.358;2023-02-15T00:32:06;78.22;;;30.55;;
41568;SDS011;27283;52.504;13.358;2023-02-15T00:34:38;87.90;;;29.45;;
41568;SDS011;27283;52.504;13.358;2023-02-15T00:37:14;80.63;;;30.70;;
41568;SDS011;27283;52.504;13.358;2023-02-15T00:39:46;76.95;;;28.60;;
41568;SDS011;27283;52.504;13.358;2023-02-15T00:42:20;81.45;;;31.00;;
41568;SDS011;27283;52.504;13.358;2023-02-15T00:45:26;79.72;;;30.15;;
41568;SDS011;27283;52.504;13.358;2023-02-15T00:48:00;82.18;;;32.22;;
41568;SDS011;27283;52.504;13.358;2023-02-15T00:50:33;81.80;;;31.08;;
41568;SDS011;27283;52.504;13.358;2023-02-15T00:53:05;86.40;;;31.17;;
41568;SDS011;27283;52.504;13.358;2023-02-15T00:55:40;81.15;;;31.83;;
41568;SDS011;27283;52.504;13.358;2023-02-15T00:58:13;83.38;;;31.92;;
41568;SDS011;27283;52.504;13.358;2023-02-15T01:01:02;88.65;;;33.42;;
41568;SDS011;27283;52.504;13.358;2023-02-15T01:03:37;81.75;;;31.35;;
41568;SDS011;27283;52.504;13.358;2023-02-15T01:06:10;86.25;;;32.72;;
41568;SDS011;27283;52.504;13.358;2023-02-15T01:08:42;91.75;;;34.35;;
41568;SDS011;27283;52.504;13.358;2023-02-15T01:11:15;92.55;;;33.10;;
41568;SDS011;27283;52.504;13.358;2023-02-15T01:13:50;92.45;;;34.15;;
41568;SDS011;27283;52.504;13.358;2023-02-15T01:16:24;91.32;;;32.85;;
41568;SDS011;27283;52.504;13.358;2023-02-15T01:19:01;89.45;;;32.08;;
41568;SDS011;27283;52.504;13.358;2023-02-15T01:21:35;94.60;;;33.15;;
41568;SDS011;27283;52.504;13.358;2023-02-15T01:24:11;95.93;;;33.38;;
41568;SDS011;27283;52.504;13.358;2023-02-15T01:26:44;100.05;;;33.00;;
41568;SDS011;27283;52.504;13.358;2023-02-15T01:29:16;96.95;;;34.33;;
41568;SDS011;27283;52.504;13.358;2023-02-15T01:31:48;96.82;;;33.92;;
41568;SDS011;27283;52.504;13.358;2023-02-15T01:34:27;101.22;;;34.67;;
41568;SDS011;27283;52.504;13.358;2023-02-15T01:37:01;95.13;;;33.72;;
41568;SDS011;27283;52.504;13.358;2023-02-15T01:39:33;95.93;;;35.08;;
41568;SDS011;27283;52.504;13.358;2023-02-15T01:42:08;92.00;;;32.75;;
41568;SDS011;27283;52.504;13.358;2023-02-15T01:44:52;103.28;;;35.75;;
41568;SDS011;27283;52.504;13.358;2023-02-15T01:47:27;103.43;;;35.97;;
41568;SDS011;27283;52.504;13.358;2023-02-15T01:50:10;113.88;;;36.95;;
41568;SDS011;27283;52.504;13.358;2023-02-15T01:52:48;109.18;;;37.10;;
41568;SDS011;27283;52.504;13.358;2023-02-15T01:55:24;106.63;;;35.47;;
41568;SDS011;27283;52.504;13.358;2023-02-15T01:58:01;104.28;;;35.42;;
41568;SDS011;27283;52.504;13.358;2023-02-15T02:00:33;106.50;;;36.47;;
41568;SDS011;27283;52.504;13.358;2023-02-15T02:03:06;108.20;;;36.17;;
41568;SDS011;27283;52.504;13.358;2023-02-15T02:05:42;115.07;;;36.53;;
41568;SDS011;27283;52.504;13.358;2023-02-15T02:08:14;115.65;;;38.00;;
41568;SDS011;27283;52.504;13.358;2023-02-15T02:10:46;116.35;;;37.70;;
41568;SDS011;27283;52.504;13.358;2023-02-15T02:13:18;114.40;;;36.97;;
41568;SDS011;27283;52.504;13.358;2023-02-15T02:15:51;109.50;;;36.60;;
41568;SDS011;27283;52.504;13.358;2023-02-15T02:18:34;107.22;;;35.85;;
41568;SDS011;27283;52.504;13.358;2023-02-15T02:27:40;117.93;;;38.15;;
41568;SDS011;27283;52.504;13.358;2023-02-15T02:33:34;112.18;;;36.20;;
41568;SDS011;27283;52.504;13.358;2023-02-15T02:36:30;111.80;;;38.25;;
41568;SDS011;27283;52.504;13.358;2023-02-15T02:39:12;111.47;;;36.30;;
41568;SDS011;27283;52.504;13.358;2023-02-15T02:41:56;116.90;;;37.92;;
41568;SDS011;27283;52.504;13.358;2023-02-15T02:44:40;111.22;;;37.00;;
41568;SDS011;27283;52.504;13.358;2023-02-15T02:47:16;119.90;;;37.53;;
41568;SDS011;27283;52.504;13.358;2023-02-15T02:50:01;118.43;;;37.88;;
41568;SDS011;27283;52.504;13.358;2023-02-15T02:52:48;121.60;;;39.60;;
41568;SDS011;27283;52.504;13.358;2023-02-15T02:55:23;125.55;;;40.35;;
41568;SDS011;27283;52.504;13.358;2023-02-15T02:58:01;126.07;;;38.63;;
41568;SDS011;27283;52.504;13.358;2023-02-15T03:00:37;138.38;;;43.25;;
41568;SDS011;27283;52.504;13.358;2023-02-15T03:03:12;137.82;;;40.47;;
41568;SDS011;27283;52.504;13.358;2023-02-15T03:05:53;130.30;;;41.60;;
41568;SDS011;27283;52.504;13.358;2023-02-15T03:08:31;137.25;;;41.65;;
41568;SDS011;27283;52.504;13.358;2023-02-15T03:11:07;149.90;;;45.03;;
41568;SDS011;27283;52.504;13.358;2023-02-15T03:13:39;153.18;;;46.67;;
41568;SDS011;27283;52.504;13.358;2023-02-15T03:16:12;152.23;;;44.03;;
41568;SDS011;27283;52.504;13.358;2023-02-15T03:18:58;151.75;;;46.20;;
41568;SDS011;27283;52.504;13.358;2023-02-15T03:21:37;154.90;;;45.90;;
41568;SDS011;27283;52.504;13.358;2023-02-15T03:24:28;155.60;;;44.97;;
41568;SDS011;27283;52.504;13.358;2023-02-15T03:27:06;149.63;;;43.13;;
41568;SDS011;27283;52.504;13.358;2023-02-15T03:29:45;145.23;;;41.85;;
41568;SDS011;27283;52.504;13.358;2023-02-15T03:32:21;140.05;;;44.20;;
41568;SDS011;27283;52.504;13.358;2023-02-15T03:34:55;143.80;;;42.95;;
41568;SDS011;27283;52.504;13.358;2023-02-15T03:37:32;132.70;;;40.20;;
41568;SDS011;27283;52.504;13.358;2023-02-15T03:40:21;141.35;;;41.47;;
41568;SDS011;27283;52.504;13.358;2023-02-15T03:43:12;136.02;;;41.70;;
41568;SDS011;27283;52.504;13.358;2023-02-15T03:45:50;140.18;;;42.88;;
41568;SDS011;27283;52.504;13.358;2023-02-15T03:48:28;137.80;;;42.13;;
41568;SDS011;27283;52.504;13.358;2023-02-15T03:51:05;150.98;;;42.83;;
41568;SDS011;27283;52.504;13.358;2023-02-15T03:53:55;139.52;;;41.10;;
41568;SDS011;27283;52.504;13.358;2023-02-15T03:56:30;141.60;;;43.05;;
41568;SDS011;27283;52.504;13.358;2023-02-15T03:59:04;134.73;;;41.95;;
41568;SDS011;27283;52.504;13.358;2023-02-15T04:01:53;139.75;;;43.40;;
41568;SDS011;27283;52.504;13.358;2023-02-15T04:04:41;145.52;;;43.10;;
41568;SDS011;27283;52.504;13.358;2023-02-15T04:07:16;139.20;;;43.30;;
41568;SDS011;27283;52.504;13.358;2023-02-15T04:12:49;151.07;;;43.35;;
41568;SDS011;27283;52.504;13.358;2023-02-15T04:15:21;134.15;;;41.70;;
41568;SDS011;27283;52.504;13.358;2023-02-15T04:18:06;141.10;;;43.72;;
41568;SDS011;27283;52.504;13.358;2023-02-15T04:20:38;143.93;;;42.67;;
41568;SDS011;27283;52.504;13.358;2023-02-15T04:23:36;152.98;;;44.92;;
41568;SDS011;27283;52.504;13.358;2023-02-15T04:26:21;150.52;;;43.92;;
41568;SDS011;27283;52.504;13.358;2023-02-15T04:28:56;156.80;;;43.95;;
41568;SDS011;27283;52.504;13.358;2023-02-15T04:31:28;145.93;;;41.55;;
41568;SDS011;27283;52.504;13.358;2023-02-15T04:34:00;165.90;;;46.60;;
41568;SDS011;27283;52.504;13.358;2023-02-15T04:36:33;148.65;;;43.50;;
41568;SDS011;27283;52.504;13.358;2023-02-15T04:39:06;158.52;;;44.50;;
41568;SDS011;27283;52.504;13.358;2023-02-15T04:41:38;157.02;;;45.67;;
41568;SDS011;27283;52.504;13.358;2023-02-15T04:44:14;140.95;;;41.83;;
41568;SDS011;27283;52.504;13.358;2023-02-15T04:46:46;161.20;;;44.58;;
41568;SDS011;27283;52.504;13.358;2023-02-15T04:49:19;152.48;;;45.00;;
41568;SDS011;27283;52.504;13.358;2023-02-15T04:51:51;150.10;;;42.45;;
41568;SDS011;27283;52.504;13.358;2023-02-15T04:54:23;146.10;;;45.00;;
41568;SDS011;27283;52.504;13.358;2023-02-15T04:56:55;154.63;;;42.88;;
41568;SDS011;27283;52.504;13.358;2023-02-15T04:59:37;146.50;;;43.30;;
41568;SDS011;27283;52.504;13.358;2023-02-15T05:02:09;146.15;;;42.45;;
41568;SDS011;27283;52.504;13.358;2023-02-15T05:04:41;146.52;;;41.05;;
41568;SDS011;27283;52.504;13.358;2023-02-15T05:07:14;147.00;;;43.58;;
41568;SDS011;27283;52.504;13.358;2023-02-15T05:09:46;153.40;;;42.03;;
41568;SDS011;27283;52.504;13.358;2023-02-15T05:12:18;151.98;;;44.15;;
41568;SDS011;27283;52.504;13.358;2023-02-15T05:14:53;148.88;;;42.83;;
41568;SDS011;27283;52.504;13.358;2023-02-15T05:17:24;156.88;;;42.80;;
41568;SDS011;27283;52.504;13.358;2023-02-15T05:19:57;148.55;;;42.70;;
41568;SDS011;27283;52.504;13.358;2023-02-15T05:22:40;145.98;;;43.92;;
41568;SDS011;27283;52.504;13.358;2023-02-15T05:25:12;163.57;;;44.92;;
41568;SDS011;27283;52.504;13.358;2023-02-15T05:27:55;160.15;;;44.10;;
41568;SDS011;27283;52.504;13.358;2023-02-15T05:30:42;150.65;;;42.13;;
41568;SDS011;27283;52.504;13.358;2023-02-15T05:33:14;151.45;;;42.65;;
41568;SDS011;27283;52.504;13.358;2023-02-15T05:35:46;158.55;;;44.10;;
41568;SDS011;27283;52.504;13.358;2023-02-15T05:38:17;155.80;;;42.83;;
41568;SDS011;27283;52.504;13.358;2023-02-15T05:40:50;156.27;;;43.58;;
41568;SDS011;27283;52.504;13.358;2023-02-15T05:43:22;164.85;;;45.03;;
41568;SDS011;27283;52.504;13.358;2023-02-15T05:45:57;158.27;;;43.85;;
41568;SDS011;27283;52.504;13.358;2023-02-15T05:48:29;162.35;;;44.05;;
41568;SDS011;27283;52.504;13.358;2023-02-15T05:51:02;171.82;;;44.38;;
41568;SDS011;27283;52.504;13.358;2023-02-15T05:53:37;176.02;;;45.17;;
41568;SDS011;27283;52.504;13.358;2023-02-15T05:56:10;177.07;;;45.65;;
41568;SDS011;27283;52.504;13.358;2023-02-15T05:58:42;163.40;;;45.03;;
41568;SDS011;27283;52.504;13.358;2023-02-15T06:01:17;160.32;;;43.17;;
41568;SDS011;27283;52.504;13.358;2023-02-15T06:03:50;194.60;;;48.05;;
41568;SDS011;27283;52.504;13.358;2023-02-15T06:06:24;180.85;;;44.45;;
41568;SDS011;27283;52.504;13.358;2023-02-15T06:08:56;176.90;;;44.97;;
41568;SDS011;27283;52.504;13.358;2023-02-15T06:11:27;174.05;;;45.35;;
41568;SDS011;27283;52.504;13.358;2023-02-15T06:13:59;183.73;;;45.22;;
41568;SDS011;27283;52.504;13.358;2023-02-15T06:16:33;180.98;;;47.47;;
41568;SDS011;27283;52.504;13.358;2023-02-15T06:19:05;175.75;;;45.97;;
41568;SDS011;27283;52.504;13.358;2023-02-15T06:21:36;190.30;;;45.40;;
41568;SDS011;27283;52.504;13.358;2023-02-15T06:24:07;191.57;;;46.10;;
41568;SDS011;27283;52.504;13.358;2023-02-15T06:26:39;193.57;;;43.42;;
41568;SDS011;27283;52.504;13.358;2023-02-15T06:29:11;210.93;;;46.70;;
41568;SDS011;27283;52.504;13.358;2023-02-15T06:31:45;190.73;;;45.42;;
41568;SDS011;27283;52.504;13.358;2023-02-15T06:34:19;238.35;;;44.60;;
41568;SDS011;27283;52.504;13.358;2023-02-15T06:36:51;181.88;;;44.95;;
41568;SDS011;27283;52.504;13.358;2023-02-15T06:39:24;239.40;;;44.13;;
41568;SDS011;27283;52.504;13.358;2023-02-15T06:41:56;221.55;;;48.35;;
41568;SDS011;27283;52.504;13.358;2023-02-15T06:44:28;228.68;;;48.70;;
41568;SDS011;27283;52.504;13.358;2023-02-15T06:47:03;209.20;;;48.97;;
41568;SDS011;27283;52.504;13.358;2023-02-15T06:49:34;245.35;;;46.67;;
41568;SDS011;27283;52.504;13.358;2023-02-15T06:52:06;266.88;;;46.33;;
41568;SDS011;27283;52.504;13.358;2023-02-15T06:54:40;268.45;;;45.83;;
41568;SDS011;27283;52.504;13.358;2023-02-15T06:57:15;252.05;;;48.50;;
41568;SDS011;27283;52.504;13.358;2023-02-15T06:59:47;209.57;;;49.78;;
41568;SDS011;27283;52.504;13.358;2023-02-15T07:02:24;246.43;;;46.83;;
41568;SDS011;27283;52.504;13.358;2023-02-15T07:04:56;217.23;;;45.60;;
41568;SDS011;27283;52.504;13.358;2023-02-15T07:07:28;236.70;;;47.60;;
41568;SDS011;27283;52.504;13.358;2023-02-15T07:09:59;239.77;;;48.70;;
41568;SDS011;27283;52.504;13.358;2023-02-15T07:12:31;239.88;;;48.67;;
41568;SDS011;27283;52.504;13.358;2023-02-15T07:15:11;225.93;;;48.17;;
41568;SDS011;27283;52.504;13.358;2023-02-15T07:17:48;214.60;;;46.30;;
41568;SDS011;27283;52.504;13.358;2023-02-15T07:20:21;196.57;;;42.40;;
41568;SDS011;27283;52.504;13.358;2023-02-15T07:22:54;228.77;;;44.88;;
41568;SDS011;27283;52.504;13.358;2023-02-15T07:25:27;199.63;;;42.63;;
41568;SDS011;27283;52.504;13.358;2023-02-15T07:28:00;175.48;;;41.03;;
41568;SDS011;27283;52.504;13.358;2023-02-15T07:30:35;187.73;;;43.70;;
41568;SDS011;27283;52.504;13.358;2023-02-15T07:33:10;209.90;;;44.00;;
41568;SDS011;27283;52.504;13.358;2023-02-15T07:35:56;180.45;;;42.58;;
41568;SDS011;27283;52.504;13.358;2023-02-15T07:38:36;177.52;;;41.13;;
41568;SDS011;27283;52.504;13.358;2023-02-15T07:41:10;196.13;;;43.47;;
41568;SDS011;27283;52.504;13.358;2023-02-15T07:43:45;197.63;;;42.75;;
41568;SDS011;27283;52.504;13.358;2023-02-15T07:46:17;188.73;;;42.38;;
41568;SDS011;27283;52.504;13.358;2023-02-15T07:48:58;160.93;;;42.95;;
41568;SDS011;27283;52.504;13.358;2023-02-15T07:51:31;174.27;;;39.60;;
41568;SDS011;27283;52.504;13.358;2023-02-15T07:54:04;177.68;;;40.60;;
41568;SDS011;27283;52.504;13.358;2023-02-15T07:56:36;206.88;;;38.58;;
41568;SDS011;27283;52.504;13.358;2023-02-15T07:59:09;172.68;;;41.75;;
41568;SDS011;27283;52.504;13.358;2023-02-15T08:01:44;157.55;;;40.17;;
41568;SDS011;27283;52.504;13.358;2023-02-15T08:04:20;162.88;;;41.35;;
41568;SDS011;27283;52.504;13.358;2023-02-15T08:06:52;172.25;;;39.05;;
41568;SDS011;27283;52.504;13.358;2023-02-15T08:09:26;175.13;;;42.63;;
41568;SDS011;27283;52.504;13.358;2023-02-15T08:11:59;154.35;;;39.90;;
41568;SDS011;27283;52.504;13.358;2023-02-15T08:14:33;164.95;;;41.10;;
41568;SDS011;27283;52.504;13.358;2023-02-15T08:17:06;154.85;;;38.95;;
41568;SDS011;27283;52.504;13.358;2023-02-15T08:19:42;154.95;;;40.28;;
41568;SDS011;27283;52.504;13.358;2023-02-15T08:22:15;145.18;;;40.92;;
41568;SDS011;27283;52.504;13.358;2023-02-15T08:24:48;147.77;;;39.88;;
41568;SDS011;27283;52.504;13.358;2023-02-15T08:27:21;144.60;;;38.75;;
41568;SDS011;27283;52.504;13.358;2023-02-15T08:29:56;137.32;;;36.95;;
41568;SDS011;27283;52.504;13.358;2023-02-15T08:32:28;129.35;;;39.10;;
41568;SDS011;27283;52.504;13.358;2023-02-15T08:35:04;126.28;;;37.10;;
41568;SDS011;27283;52.504;13.358;2023-02-15T08:37:38;139.15;;;37.00;;
41568;SDS011;27283;52.504;13.358;2023-02-15T08:40:11;133.00;;;39.42;;
41568;SDS011;27283;52.504;13.358;2023-02-15T08:42:44;136.63;;;36.30;;
41568;SDS011;27283;52.504;13.358;2023-02-15T08:45:16;131.50;;;37.25;;
41568;SDS011;27283;52.504;13.358;2023-02-15T08:47:48;119.18;;;36.58;;
41568;SDS011;27283;52.504;13.358;2023-02-15T08:50:23;126.20;;;33.28;;
41568;SDS011;27283;52.504;13.358;2023-02-15T08:52:55;123.47;;;35.22;;
41568;SDS011;27283;52.504;13.358;2023-02-15T08:55:27;120.40;;;35.47;;
41568;SDS011;27283;52.504;13.358;2023-02-15T08:57:59;109.15;;;33.50;;
41568;SDS011;27283;52.504;13.358;2023-02-15T09:00:31;107.60;;;35.40;;
41568;SDS011;27283;52.504;13.358;2023-02-15T09:03:03;105.47;;;33.17;;
41568;SDS011;27283;52.504;13.358;2023-02-15T09:05:38;101.70;;;33.50;;
41568;SDS011;27283;52.504;13.358;2023-02-15T09:08:11;102.18;;;34.58;;
41568;SDS011;27283;52.504;13.358;2023-02-15T09:10:43;103.28;;;33.97;;
41568;SDS011;27283;52.504;13.358;2023-02-15T09:13:15;99.95;;;33.50;;
41568;SDS011;27283;52.504;13.358;2023-02-15T09:15:47;96.30;;;32.08;;
41568;SDS011;27283;52.504;13.358;2023-02-15T09:18:19;101.93;;;33.25;;
41568;SDS011;27283;52.504;13.358;2023-02-15T09:20:54;99.53;;;34.22;;
41568;SDS011;27283;52.504;13.358;2023-02-15T09:23:28;102.88;;;33.47;;
41568;SDS011;27283;52.504;13.358;2023-02-15T09:26:04;102.80;;;34.97;;
41568;SDS011;27283;52.504;13.358;2023-02-15T09:28:39;89.43;;;30.90;;
41568;SDS011;27283;52.504;13.358;2023-02-15T09:31:12;94.10;;;32.75;;
41568;SDS011;27283;52.504;13.358;2023-02-15T09:33:47;93.05;;;32.50;;
41568;SDS011;27283;52.504;13.358;2023-02-15T09:36:23;91.05;;;31.77;;
41568;SDS011;27283;52.504;13.358;2023-02-15T09:38:58;96.63;;;31.88;;
41568;SDS011;27283;52.504;13.358;2023-02-15T09:44:40;90.82;;;32.88;;
41568;SDS011;27283;52.504;13.358;2023-02-15T09:47:31;91.63;;;33.08;;
41568;SDS011;27283;52.504;13.358;2023-02-15T09:50:22;89.28;;;31.02;;
41568;SDS011;27283;52.504;13.358;2023-02-15T09:53:22;90.50;;;31.63;;
41568;SDS011;27283;52.504;13.358;2023-02-15T09:56:06;78.13;;;31.13;;
41568;SDS011;27283;52.504;13.358;2023-02-15T09:58:50;87.07;;;31.20;;
41568;SDS011;27283;52.504;13.358;2023-02-15T10:01:34;82.65;;;31.05;;
41568;SDS011;27283;52.504;13.358;2023-02-15T10:04:18;81.97;;;30.83;;
41568;SDS011;27283;52.504;13.358;2023-02-15T10:07:09;81.18;;;29.27;;
41568;SDS011;27283;52.504;13.358;2023-02-15T10:10:03;82.70;;;30.80;;
41568;SDS011;27283;52.504;13.358;2023-02-15T10:12:53;79.20;;;30.33;;
41568;SDS011;27283;52.504;13.358;2023-02-15T10:15:41;79.88;;;31.08;;
41568;SDS011;27283;52.504;13.358;2023-02-15T10:18:43;74.28;;;28.98;;
41568;SDS011;27283;52.504;13.358;2023-02-15T10:21:29;71.03;;;28.58;;
41568;SDS011;27283;52.504;13.358;2023-02-15T10:27:20;65.72;;;27.90;;
41568;SDS011;27283;52.504;13.358;2023-02-15T10:29:55;70.18;;;29.88;;
41568;SDS011;27283;52.504;13.358;2023-02-15T10:32:41;70.22;;;30.00;;
41568;SDS011;27283;52.504;13.358;2023-02-15T10:35:24;70.38;;;30.15;;
41568;SDS011;27283;52.504;13.358;2023-02-15T10:41:02;70.82;;;31.13;;
41568;SDS011;27283;52.504;13.358;2023-02-15T10:43:53;61.17;;;28.15;;
41568;SDS011;27283;52.504;13.358;2023-02-15T10:46:41;63.05;;;29.33;;
41568;SDS011;27283;52.504;13.358;2023-02-15T10:49:42;66.55;;;30.75;;
41568;SDS011;27283;52.504;13.358;2023-02-15T10:52:27;62.88;;;29.55;;
41568;SDS011;27283;52.504;13.358;2023-02-15T10:55:12;64.90;;;28.35;;
41568;SDS011;27283;52.504;13.358;2023-02-15T10:57:51;60.20;;;29.27;;
41568;SDS011;27283;52.504;13.358;2023-02-15T11:00:38;68.38;;;32.45;;
41568;SDS011;27283;52.504;13.358;2023-02-15T11:03:23;60.60;;;29.13;;
41568;SDS011;27283;52.504;13.358;2023-02-15T11:06:07;55.92;;;27.30;;
41568;SDS011;27283;52.504;13.358;2023-02-15T11:08:41;56.38;;;29.40;;
41568;SDS011;27283;52.504;13.358;2023-02-15T11:11:20;63.25;;;29.52;;
41568;SDS011;27283;52.504;13.358;2023-02-15T11:13:56;61.08;;;28.65;;
41568;SDS011;27283;52.504;13.358;2023-02-15T11:16:34;58.35;;;28.25;;
41568;SDS011;27283;52.504;13.358;2023-02-15T11:19:11;62.95;;;29.00;;
41568;SDS011;27283;52.504;13.358;2023-02-15T11:21:48;64.50;;;30.13;;
41568;SDS011;27283;52.504;13.358;2023-02-15T11:24:25;60.17;;;28.73;;
41568;SDS011;27283;52.504;13.358;2023-02-15T11:27:02;58.55;;;28.95;;
41568;SDS011;27283;52.504;13.358;2023-02-15T11:29:37;62.00;;;29.48;;
41568;SDS011;27283;52.504;13.358;2023-02-15T11:32:18;63.90;;;29.50;;
41568;SDS011;27283;52.504;13.358;2023-02-15T11:34:53;60.20;;;29.17;;
41568;SDS011;27283;52.504;13.358;2023-02-15T11:37:33;61.55;;;28.50;;
41568;SDS011;27283;52.504;13.358;2023-02-15T11:40:15;57.00;;;28.65;;
41568;SDS011;27283;52.504;13.358;2023-02-15T11:42:54;59.90;;;29.38;;
41568;SDS011;27283;52.504;13.358;2023-02-15T11:45:28;62.47;;;30.13;;
41568;SDS011;27283;52.504;13.358;2023-02-15T11:48:08;67.45;;;30.13;;
41568;SDS011;27283;52.504;13.358;2023-02-15T11:50:42;66.63;;;29.92;;
41568;SDS011;27283;52.504;13.358;2023-02-15T11:53:16;66.18;;;29.92;;
41568;SDS011;27283;52.504;13.358;2023-02-15T11:55:53;65.10;;;27.48;;
41568;SDS011;27283;52.504;13.358;2023-02-15T11:58:29;63.33;;;27.15;;
41568;SDS011;27283;52.504;13.358;2023-02-15T12:01:08;63.38;;;26.75;;
41568;SDS011;27283;52.504;13.358;2023-02-15T12:03:48;63.28;;;27.95;;
41568;SDS011;27283;52.504;13.358;2023-02-15T12:06:24;66.95;;;28.00;;
41568;SDS011;27283;52.504;13.358;2023-02-15T12:09:01;59.88;;;25.27;;
41568;SDS011;27283;52.504;13.358;2023-02-15T12:11:38;64.03;;;26.63;;
41568;SDS011;27283;52.504;13.358;2023-02-15T12:14:12;56.30;;;24.45;;
41568;SDS011;27283;52.504;13.358;2023-02-15T12:16:50;55.55;;;24.42;;
41568;SDS011;27283;52.504;13.358;2023-02-15T12:19:31;56.67;;;24.30;;
41568;SDS011;27283;52.504;13.358;2023-02-15T12:22:10;56.67;;;25.33;;
41568;SDS011;27283;52.504;13.358;2023-02-15T12:24:54;56.75;;;24.55;;
41568;SDS011;27283;52.504;13.358;2023-02-15T12:27:28;53.85;;;23.83;;
41568;SDS011;27283;52.504;13.358;2023-02-15T12:30:04;49.17;;;23.02;;
41568;SDS011;27283;52.504;13.358;2023-02-15T12:32:46;53.67;;;22.60;;
41568;SDS011;27283;52.504;13.358;2023-02-15T12:35:26;51.85;;;22.50;;
41568;SDS011;27283;52.504;13.358;2023-02-15T12:38:03;51.72;;;22.77;;
41568;SDS011;27283;52.504;13.358;2023-02-15T12:40:38;52.28;;;23.15;;
41568;SDS011;27283;52.504;13.358;2023-02-15T12:43:15;50.13;;;21.52;;
41568;SDS011;27283;52.504;13.358;2023-02-15T12:46:12;47.13;;;21.98;;
41568;SDS011;27283;52.504;13.358;2023-02-15T12:49:04;41.92;;;19.92;;
41568;SDS011;27283;52.504;13.358;2023-02-15T12:51:46;42.95;;;20.58;;
41568;SDS011;27283;52.504;13.358;2023-02-15T12:54:34;48.10;;;21.30;;
41568;SDS011;27283;52.504;13.358;2023-02-15T12:57:13;48.70;;;22.02;;
41568;SDS011;27283;52.504;13.358;2023-02-15T12:59:53;53.83;;;24.08;;
41568;SDS011;27283;52.504;13.358;2023-02-15T13:02:28;55.70;;;24.17;;
41568;SDS011;27283;52.504;13.358;2023-02-15T13:05:13;54.38;;;25.27;;
41568;SDS011;27283;52.504;13.358;2023-02-15T13:07:56;52.30;;;24.05;;
41568;SDS011;27283;52.504;13.358;2023-02-15T13:10:30;56.72;;;25.33;;
41568;SDS011;27283;52.504;13.358;2023-02-15T13:13:09;55.92;;;25.45;;
41568;SDS011;27283;52.504;13.358;2023-02-15T13:15:44;67.95;;;26.77;;
41568;SDS011;27283;52.504;13.358;2023-02-15T13:18:25;60.13;;;25.33;;
41568;SDS011;27283;52.504;13.358;2023-02-15T13:21:06;56.92;;;25.77;;
41568;SDS011;27283;52.504;13.358;2023-02-15T13:23:48;53.35;;;24.02;;
41568;SDS011;27283;52.504;13.358;2023-02-15T13:26:25;55.25;;;24.80;;
41568;SDS011;27283;52.504;13.358;2023-02-15T13:29:05;56.30;;;24.63;;
41568;SDS011;27283;52.504;13.358;2023-02-15T13:31:43;57.88;;;25.45;;
41568;SDS011;27283;52.504;13.358;2023-02-15T13:34:18;55.88;;;24.67;;
41568;SDS011;27283;52.504;13.358;2023-02-15T13:36:57;54.67;;;24.65;;
41568;SDS011;27283;52.504;13.358;2023-02-15T13:39:40;60.75;;;26.23;;
41568;SDS011;27283;52.504;13.358;2023-02-15T13:42:19;56.75;;;24.55;;
41568;SDS011;27283;52.504;13.358;2023-02-15T13:45:02;62.33;;;30.33;;
41568;SDS011;27283;52.504;13.358;2023-02-15T13:47:52;57.58;;;24.35;;
41568;SDS011;27283;52.504;13.358;2023-02-15T13:50:36;55.95;;;25.17;;
41568;SDS011;27283;52.504;13.358;2023-02-15T13:53:29;55.72;;;25.77;;
41568;SDS011;27283;52.504;13.358;2023-02-15T13:56:16;54.17;;;24.13;;
41568;SDS011;27283;52.504;13.358;2023-02-15T13:59:12;52.10;;;23.73;;
41568;SDS011;27283;52.504;13.358;2023-02-15T14:01:57;56.75;;;24.27;;
41568;SDS011;27283;52.504;13.358;2023-02-15T14:04:50;51.83;;;23.60;;
41568;SDS011;27283;52.504;13.358;2023-02-15T14:07:41;53.25;;;24.13;;
41568;SDS011;27283;52.504;13.358;2023-02-15T14:10:31;38.88;;;18.88;;
41568;SDS011;27283;52.504;13.358;2023-02-15T14:13:24;45.25;;;20.02;;
41568;SDS011;27283;52.504;13.358;2023-02-15T14:16:16;41.80;;;19.98;;
41568;SDS011;27283;52.504;13.358;2023-02-15T14:19:04;40.17;;;19.08;;
41568;SDS011;27283;52.504;13.358;2023-02-15T14:21:49;41.95;;;18.83;;
41568;SDS011;27283;52.504;13.358;2023-02-15T14:24:32;40.55;;;19.20;;
41568;SDS011;27283;52.504;13.358;2023-02-15T14:27:15;41.17;;;19.75;;
41568;SDS011;27283;52.504;13.358;2023-02-15T14:29:57;40.88;;;19.45;;
41568;SDS011;27283;52.504;13.358;2023-02-15T14:32:34;40.55;;;19.05;;
41568;SDS011;27283;52.504;13.358;2023-02-15T14:35:14;39.00;;;18.25;;
41568;SDS011;27283;52.504;13.358;2023-02-15T14:37:50;42.90;;;17.65;;
41568;SDS011;27283;52.504;13.358;2023-02-15T14:40:32;37.38;;;16.90;;
41568;SDS011;27283;52.504;13.358;2023-02-15T14:43:29;38.47;;;17.95;;
41568;SDS011;27283;52.504;13.358;2023-02-15T14:46:10;38.22;;;18.15;;
41568;SDS011;27283;52.504;13.358;2023-02-15T14:48:53;37.50;;;18.20;;
41568;SDS011;27283;52.504;13.358;2023-02-15T14:57:36;33.58;;;16.48;;
41568;SDS011;27283;52.504;13.358;2023-02-15T15:03:16;44.15;;;19.08;;
41568;SDS011;27283;52.504;13.358;2023-02-15T15:05:53;41.75;;;19.02;;
41568;SDS011;27283;52.504;13.358;2023-02-15T15:08:32;43.33;;;21.00;;
41568;SDS011;27283;52.504;13.358;2023-02-15T15:14:36;42.17;;;19.98;;
41568;SDS011;27283;52.504;13.358;2023-02-15T15:17:12;41.85;;;19.95;;
41568;SDS011;27283;52.504;13.358;2023-02-15T15:20:14;41.55;;;19.27;;
41568;SDS011;27283;52.504;13.358;2023-02-15T15:26:22;38.47;;;17.42;;
41568;SDS011;27283;52.504;13.358;2023-02-15T15:29:02;40.65;;;18.67;;
41568;SDS011;27283;52.504;13.358;2023-02-15T15:31:39;31.95;;;16.23;;
41568;SDS011;27283;52.504;13.358;2023-02-15T15:40:26;32.55;;;15.70;;
41568;SDS011;27283;52.504;13.358;2023-02-15T15:43:26;34.20;;;16.08;;
41568;SDS011;27283;52.504;13.358;2023-02-15T15:46:20;35.63;;;15.88;;
41568;SDS011;27283;52.504;13.358;2023-02-15T15:49:08;36.03;;;15.40;;